Time;durP1;ratioP1;P1;durP2;ratioP2;P2;SDS_P1;SDS_P2;PMS_P1;PMS_P2;Temp;Humidity;BMP_temperature;BMP_pressure;BME280_temperature;BME280_humidity;BME280_pressure;Samples;Min_cycle;Max_cycle;Signal;HPM_P1;HPM_P2
2023/03/26 00:01:24;;;;;;;27.23;5.88;;;9.30;99.90;;;;;;5158446;27;20034;-73
2023/03/26 00:03:56;;;;;;;25.33;6.63;;;9.40;99.90;;;;;;5158742;27;20038;-73
2023/03/26 00:06:27;;;;;;;31.90;6.65;;;9.30;99.90;;;;;;5158735;27;20043;-73
2023/03/26 00:08:56;;;;;;;29.35;7.38;;;9.30;99.90;;;;;;5158698;27;20300;-73
2023/03/26 00:11:23;;;;;;;27.42;6.10;;;9.40;99.90;;;;;;5158342;27;20042;-73
2023/03/26 00:13:49;;;;;;;26.65;6.60;;;9.40;99.90;;;;;;5158497;27;20339;-73
2023/03/26 00:16:18;;;;;;;25.05;6.43;;;9.40;99.90;;;;;;5158609;27;20331;-73
2023/03/26 00:18:44;;;;;;;20.58;6.07;;;9.20;99.90;;;;;;5157900;27;20034;-73
2023/03/26 00:21:20;;;;;;;25.08;7.35;;;9.20;99.90;;;;;;5158235;27;20039;-73
2023/03/26 00:23:47;;;;;;;27.35;6.28;;;9.30;99.90;;;;;;5158188;27;20039;-73
2023/03/26 00:26:14;;;;;;;21.85;6.03;;;9.30;99.90;;;;;;5139851;27;20055;-73
2023/03/26 00:28:41;;;;;;;23.10;6.15;;;9.20;99.90;;;;;;5158446;27;20043;-73
2023/03/26 00:31:11;;;;;;;26.35;6.05;;;9.20;99.90;;;;;;5158456;27;20358;-72
2023/03/26 00:33:39;;;;;;;22.48;6.10;;;9.00;99.90;;;;;;5158008;27;20046;-73
2023/03/26 00:36:16;;;;;;;22.80;5.00;;;9.00;99.90;;;;;;5158405;27;20380;-73
2023/03/26 00:38:43;;;;;;;26.75;5.80;;;9.00;99.90;;;;;;5158382;27;20045;-73
2023/03/26 00:41:35;;;;;;;25.38;4.95;;;9.00;99.90;;;;;;5140087;27;20492;-73
2023/03/26 00:43:58;;;;;;;27.27;4.88;;;9.00;99.90;;;;;;5157621;27;20039;-72
2023/03/26 00:46:26;;;;;;;30.65;5.28;;;9.10;99.90;;;;;;5157980;27;20074;-73
2023/03/26 00:48:52;;;;;;;27.85;4.55;;;8.90;99.90;;;;;;5157532;27;20046;-73
2023/03/26 00:51:19;;;;;;;18.50;4.38;;;8.80;99.90;;;;;;5158033;27;20045;-73
2023/03/26 00:53:47;;;;;;;25.42;5.07;;;8.80;99.90;;;;;;5157856;27;20446;-73
2023/03/26 00:56:13;;;;;;;20.67;4.05;;;8.70;99.90;;;;;;5158167;27;20070;-73
2023/03/26 00:58:42;;;;;;;25.55;4.80;;;8.90;99.90;;;;;;5158220;27;20041;-73
2023/03/26 01:01:15;;;;;;;26.02;4.80;;;8.90;99.90;;;;;;5139821;27;20114;-73
2023/03/26 01:03:42;;;;;;;26.48;4.97;;;8.80;99.90;;;;;;5162140;27;20034;-73
2023/03/26 01:06:18;;;;;;;22.05;4.30;;;8.70;99.90;;;;;;5162048;27;20039;-73
2023/03/26 01:08:46;;;;;;;31.77;5.60;;;8.80;99.90;;;;;;5162087;27;20117;-73
2023/03/26 01:11:28;;;;;;;24.98;4.85;;;8.80;99.90;;;;;;5162049;27;20104;-73
2023/03/26 01:13:58;;;;;;;17.42;4.05;;;8.60;99.90;;;;;;5161954;27;20051;-72
2023/03/26 01:16:32;;;;;;;20.92;4.10;;;8.70;99.90;;;;;;5162093;27;20031;-73
2023/03/26 01:18:59;;;;;;;25.48;4.30;;;8.70;99.90;;;;;;5161465;27;20117;-73
2023/03/26 01:21:29;;;;;;;32.72;5.22;;;8.70;99.90;;;;;;5161475;27;20074;-73
2023/03/26 01:24:05;;;;;;;15.52;4.00;;;8.70;99.90;;;;;;5161451;27;20343;-73
2023/03/26 01:26:37;;;;;;;28.77;5.03;;;8.80;99.90;;;;;;5161758;27;20041;-73
2023/03/26 01:29:07;;;;;;;28.65;5.32;;;8.70;99.90;;;;;;5161619;27;20134;-73
2023/03/26 01:31:43;;;;;;;31.27;4.70;;;8.60;99.90;;;;;;5161249;27;20436;-73
2023/03/26 01:34:32;;;;;;;25.40;5.80;;;8.60;99.90;;;;;;5161596;27;20240;-73
2023/03/26 01:37:12;;;;;;;24.33;4.05;;;8.50;99.90;;;;;;5161302;27;20035;-73
2023/03/26 01:39:52;;;;;;;27.08;4.18;;;8.30;99.90;;;;;;5161499;27;20391;-73
2023/03/26 01:42:26;;;;;;;30.30;4.65;;;8.40;99.90;;;;;;5161154;27;20443;-73
2023/03/26 01:45:02;;;;;;;21.98;4.47;;;8.40;99.90;;;;;;5161089;27;20039;-72
2023/03/26 01:47:28;;;;;;;23.77;4.43;;;8.50;99.90;;;;;;5161078;27;20038;-73
2023/03/26 01:49:54;;;;;;;19.73;4.70;;;8.40;99.90;;;;;;5160534;27;20446;-73
2023/03/26 01:52:24;;;;;;;28.98;4.28;;;8.40;99.90;;;;;;5160677;27;20051;-74
2023/03/26 01:54:53;;;;;;;22.25;3.80;;;8.50;99.90;;;;;;5160887;27;20114;-72
2023/03/26 01:57:36;;;;;;;24.15;3.97;;;8.50;99.90;;;;;;5161106;27;20035;-73
2023/03/26 02:00:23;;;;;;;25.00;3.97;;;8.40;99.90;;;;;;5160869;27;20072;-73
2023/03/26 02:03:26;;;;;;;21.10;4.15;;;8.50;99.90;;;;;;5161003;27;20099;-73
2023/03/26 02:06:07;;;;;;;27.17;4.25;;;8.60;99.90;;;;;;5107827;27;20051;-73
2023/03/26 02:08:41;;;;;;;25.70;3.90;;;8.50;99.90;;;;;;5160930;27;20051;-73
2023/03/26 02:11:11;;;;;;;22.40;4.10;;;8.50;99.90;;;;;;5160889;27;20047;-73
2023/03/26 02:13:38;;;;;;;28.45;4.45;;;8.50;99.90;;;;;;5159913;27;20091;-73
2023/03/26 02:16:07;;;;;;;31.02;4.25;;;8.50;99.90;;;;;;5160726;27;20045;-73
2023/03/26 02:18:37;;;;;;;30.48;3.97;;;8.60;99.90;;;;;;5160426;27;20039;-73
2023/03/26 02:21:12;;;;;;;23.73;4.55;;;8.70;99.90;;;;;;5160079;27;20050;-73
2023/03/26 02:23:41;;;;;;;26.50;3.72;;;8.80;99.90;;;;;;5160753;27;20053;-73
2023/03/26 02:26:09;;;;;;;26.67;3.92;;;8.90;99.90;;;;;;5160534;27;20038;-73
2023/03/26 02:28:36;;;;;;;24.20;3.72;;;8.90;99.90;;;;;;5160447;27;20038;-73
2023/03/26 02:31:02;;;;;;;32.08;4.97;;;9.00;99.90;;;;;;5160464;27;20094;-73
2023/03/26 02:33:30;;;;;;;16.40;3.20;;;9.10;99.90;;;;;;5160038;27;20049;-73
2023/03/26 02:36:00;;;;;;;23.33;3.33;;;9.00;99.90;;;;;;5160397;27;20316;-73
2023/03/26 02:38:27;;;;;;;27.13;5.28;;;9.10;99.90;;;;;;5160135;27;20308;-73
2023/03/26 02:40:54;;;;;;;23.63;4.28;;;9.10;99.90;;;;;;5160279;27;20038;-73
2023/03/26 02:43:21;;;;;;;20.50;4.68;;;9.00;99.90;;;;;;5160201;27;20070;-73
2023/03/26 02:45:46;;;;;;;23.85;4.13;;;9.10;99.90;;;;;;5159817;27;20122;-73
2023/03/26 02:48:13;;;;;;;16.85;3.65;;;9.00;99.90;;;;;;5160087;27;20073;-73
2023/03/26 02:50:39;;;;;;;26.23;3.42;;;8.90;99.90;;;;;;5159639;27;20074;-73
2023/03/26 02:53:05;;;;;;;28.35;4.15;;;8.90;99.90;;;;;;5159421;27;20494;-73
2023/03/26 02:55:31;;;;;;;21.05;3.97;;;8.90;99.90;;;;;;5159917;27;20120;-73
2023/03/26 02:57:57;;;;;;;22.80;3.92;;;9.00;99.90;;;;;;5159859;27;20043;-73
2023/03/26 03:00:24;;;;;;;19.30;3.28;;;9.20;99.90;;;;;;5159874;27;20085;-73
2023/03/26 03:02:51;;;;;;;17.80;3.50;;;9.30;99.90;;;;;;5141376;27;20046;-73
2023/03/26 03:05:18;;;;;;;24.10;3.90;;;9.30;99.90;;;;;;5159734;27;20049;-73
2023/03/26 03:07:45;;;;;;;19.52;3.53;;;9.20;99.90;;;;;;5159672;27;20034;-73
2023/03/26 03:10:13;;;;;;;25.38;4.15;;;9.30;99.90;;;;;;5141102;27;20035;-73
2023/03/26 03:12:42;;;;;;;21.17;3.47;;;9.30;99.90;;;;;;5141118;27;20083;-73
2023/03/26 03:15:08;;;;;;;24.35;3.60;;;9.20;99.90;;;;;;5159534;27;20046;-73
2023/03/26 03:17:34;;;;;;;24.40;4.05;;;9.30;99.90;;;;;;5159570;27;20045;-73
2023/03/26 03:19:59;;;;;;;17.02;3.92;;;9.40;99.90;;;;;;5158776;27;20042;-73
2023/03/26 03:22:25;;;;;;;23.70;3.90;;;9.50;99.90;;;;;;5159449;27;20038;-73
2023/03/26 03:24:51;;;;;;;25.15;4.38;;;9.60;99.90;;;;;;5159384;27;20068;-73
2023/03/26 03:27:19;;;;;;;21.23;3.97;;;9.70;99.90;;;;;;5159402;27;20129;-73
2023/03/26 03:29:45;;;;;;;21.38;5.28;;;9.70;99.90;;;;;;5159292;27;20045;-73
2023/03/26 03:32:11;;;;;;;27.67;4.30;;;9.70;99.90;;;;;;5158862;27;20110;-73
2023/03/26 03:34:37;;;;;;;22.45;4.22;;;9.70;99.90;;;;;;5158890;27;20122;-73
2023/03/26 03:37:04;;;;;;;21.90;4.70;;;9.70;99.90;;;;;;5159202;27;20113;-73
2023/03/26 03:39:29;;;;;;;20.10;5.05;;;9.70;99.90;;;;;;5159096;27;20043;-73
2023/03/26 03:41:55;;;;;;;21.52;4.68;;;9.70;99.90;;;;;;5158811;27;20034;-73
2023/03/26 03:44:21;;;;;;;25.95;5.18;;;9.80;99.90;;;;;;5159007;27;20119;-73
2023/03/26 03:46:48;;;;;;;12.73;3.30;;;9.70;99.90;;;;;;5159017;27;20042;-73
2023/03/26 03:49:14;;;;;;;19.35;4.00;;;9.50;99.90;;;;;;5158411;27;20034;-74
2023/03/26 03:51:41;;;;;;;15.82;4.07;;;9.60;99.90;;;;;;5158706;27;20050;-73
2023/03/26 03:54:07;;;;;;;14.75;3.65;;;9.60;99.90;;;;;;5158836;27;20047;-73
2023/03/26 03:56:34;;;;;;;20.23;4.10;;;9.50;99.90;;;;;;5158850;27;20071;-73
2023/03/26 03:59:00;;;;;;;17.65;3.90;;;9.30;99.90;;;;;;5158863;27;20035;-73
2023/03/26 04:01:29;;;;;;;16.17;3.65;;;9.30;99.90;;;;;;5158774;27;20117;-73
2023/03/26 04:03:56;;;;;;;20.17;3.42;;;9.40;99.90;;;;;;5158728;27;20335;-73
2023/03/26 04:06:24;;;;;;;17.73;3.70;;;9.40;99.90;;;;;;5158704;27;20043;-73
2023/03/26 04:08:50;;;;;;;13.48;3.25;;;9.40;99.90;;;;;;5158666;27;20122;-73
2023/03/26 04:11:16;;;;;;;13.60;3.10;;;9.30;99.90;;;;;;5140123;27;20099;-73
2023/03/26 04:13:42;;;;;;;16.30;2.85;;;9.20;99.90;;;;;;5139993;27;20058;-73
2023/03/26 04:16:09;;;;;;;15.73;3.13;;;9.20;99.90;;;;;;5158623;27;20083;-73
2023/03/26 04:18:36;;;;;;;14.25;3.67;;;9.10;99.90;;;;;;5139979;27;20071;-73
2023/03/26 04:21:04;;;;;;;16.58;3.17;;;9.00;99.90;;;;;;5157995;27;20039;-73
2023/03/26 04:23:30;;;;;;;18.20;4.05;;;8.90;99.90;;;;;;5139889;27;20079;-73
2023/03/26 04:26:02;;;;;;;22.27;3.20;;;8.90;99.90;;;;;;5140285;27;20147;-73
2023/03/26 04:28:54;;;;;;;15.38;3.08;;;8.80;99.90;;;;;;5158569;27;20409;-73
2023/03/26 04:31:23;;;;;;;14.30;2.85;;;8.80;99.90;;;;;;5158491;27;20332;-73
2023/03/26 04:33:53;;;;;;;15.57;2.97;;;8.70;99.90;;;;;;5158349;27;20041;-73
2023/03/26 04:36:25;;;;;;;21.60;4.03;;;8.60;99.90;;;;;;5158427;27;20031;-73
2023/03/26 04:38:52;;;;;;;18.38;3.10;;;8.60;99.90;;;;;;5162408;27;20031;-73
2023/03/26 04:41:19;;;;;;;13.27;2.80;;;8.70;99.90;;;;;;5162621;27;20135;-73
2023/03/26 04:43:49;;;;;;;18.63;3.30;;;8.70;99.90;;;;;;5162235;27;20435;-73
2023/03/26 04:46:20;;;;;;;19.50;3.25;;;8.70;99.90;;;;;;5162263;27;20045;-73
2023/03/26 04:48:47;;;;;;;15.10;2.95;;;8.70;99.90;;;;;;5162495;27;20039;-73
2023/03/26 04:51:17;;;;;;;19.33;3.30;;;8.80;99.90;;;;;;5161556;27;20046;-73
2023/03/26 04:54:05;;;;;;;17.80;3.08;;;8.80;99.90;;;;;;5161866;27;20051;-73
2023/03/26 04:56:51;;;;;;;17.20;3.58;;;8.80;99.90;;;;;;5162276;27;20031;-73
2023/03/26 04:59:25;;;;;;;16.67;4.22;;;8.90;99.90;;;;;;5162307;27;20062;-73
2023/03/26 05:01:52;;;;;;;18.00;3.00;;;8.90;99.90;;;;;;5162187;27;20043;-73
2023/03/26 05:04:18;;;;;;;15.18;2.95;;;8.90;99.90;;;;;;5162161;27;20035;-73
2023/03/26 05:06:43;;;;;;;17.65;3.53;;;8.90;99.90;;;;;;5162083;27;20042;-73
2023/03/26 05:09:10;;;;;;;21.35;3.45;;;8.90;99.90;;;;;;5161676;27;20043;-73
2023/03/26 05:11:36;;;;;;;19.30;3.83;;;8.80;99.90;;;;;;5162547;27;20046;-73
2023/03/26 05:14:02;;;;;;;16.90;3.92;;;8.80;99.90;;;;;;5161886;27;20046;-73
2023/03/26 05:16:28;;;;;;;20.58;3.33;;;8.90;99.90;;;;;;5161966;27;20122;-73
2023/03/26 05:18:54;;;;;;;10.85;2.70;;;8.90;99.90;;;;;;5161849;27;20036;-73
2023/03/26 05:21:21;;;;;;;19.10;3.38;;;8.80;99.90;;;;;;5161094;27;20420;-73
2023/03/26 05:23:47;;;;;;;20.67;3.08;;;8.90;99.90;;;;;;5161906;27;20113;-73
2023/03/26 05:26:13;;;;;;;18.80;3.17;;;8.90;99.90;;;;;;5161462;27;20081;-73
2023/03/26 05:28:38;;;;;;;14.00;3.40;;;8.90;99.90;;;;;;5143152;27;20041;-73
2023/03/26 05:31:08;;;;;;;18.88;3.22;;;8.90;99.90;;;;;;5161641;27;20114;-73
2023/03/26 05:33:34;;;;;;;24.95;2.97;;;8.70;99.90;;;;;;5161554;27;20045;-73
2023/03/26 05:36:02;;;;;;;26.10;4.07;;;8.60;99.90;;;;;;5161557;27;20331;-73
2023/03/26 05:38:31;;;;;;;18.27;3.40;;;8.60;99.90;;;;;;5161556;27;20297;-73
2023/03/26 05:41:01;;;;;;;16.80;2.80;;;8.60;99.90;;;;;;5161510;27;20039;-73
2023/03/26 05:43:28;;;;;;;15.70;2.47;;;8.60;99.90;;;;;;5161456;27;20042;-73
2023/03/26 05:45:54;;;;;;;19.65;2.90;;;8.60;99.90;;;;;;5161333;27;20053;-73
2023/03/26 05:48:21;;;;;;;26.05;3.05;;;8.70;99.90;;;;;;5160065;27;20050;-73
2023/03/26 05:50:51;;;;;;;26.80;2.97;;;8.70;99.90;;;;;;5160507;27;20034;-73
2023/03/26 05:53:17;;;;;;;15.68;2.63;;;8.70;99.90;;;;;;5160723;27;20077;-72
2023/03/26 05:55:57;;;;;;;18.27;2.63;;;8.80;99.90;;;;;;5160837;27;20074;-72
2023/03/26 05:58:24;;;;;;;18.05;2.42;;;8.90;99.90;;;;;;5160820;27;20053;-72
2023/03/26 06:00:58;;;;;;;25.20;2.60;;;8.90;99.90;;;;;;5160761;27;20067;-72
2023/03/26 06:03:24;;;;;;;18.77;2.67;;;8.90;99.90;;;;;;5161004;27;20043;-72
2023/03/26 06:05:50;;;;;;;21.13;3.15;;;8.90;99.90;;;;;;5125415;27;20171;-73
2023/03/26 06:08:15;;;;;;;26.40;2.85;;;8.80;99.90;;;;;;5160869;27;20041;-72
2023/03/26 06:10:41;;;;;;;20.27;2.22;;;8.90;99.90;;;;;;5160882;27;20479;-72
2023/03/26 06:13:07;;;;;;;25.95;2.92;;;8.90;99.90;;;;;;5160440;27;20099;-73
2023/03/26 06:15:33;;;;;;;17.55;2.45;;;9.10;99.90;;;;;;5160750;27;20035;-72
2023/03/26 06:17:59;;;;;;;17.00;2.92;;;9.10;99.90;;;;;;5160763;27;20039;-73
2023/03/26 06:20:25;;;;;;;13.38;2.03;;;9.20;99.90;;;;;;5160552;27;20083;-72
2023/03/26 06:22:50;;;;;;;21.77;2.60;;;9.30;99.90;;;;;;5160627;27;20034;-72
2023/03/26 06:25:16;;;;;;;18.67;2.95;;;9.40;99.90;;;;;;5160566;27;20038;-73
2023/03/26 06:27:42;;;;;;;15.70;2.30;;;9.40;99.90;;;;;;5160582;27;20038;-73
2023/03/26 06:30:08;;;;;;;18.73;2.80;;;9.40;99.90;;;;;;5160446;27;20045;-72
2023/03/26 06:32:34;;;;;;;16.05;2.92;;;9.40;99.90;;;;;;5160300;27;20042;-73
2023/03/26 06:34:59;;;;;;;16.17;2.35;;;9.40;99.90;;;;;;5160384;27;20118;-72
2023/03/26 06:37:25;;;;;;;17.05;2.50;;;9.40;99.90;;;;;;5160061;27;20035;-72
2023/03/26 06:39:51;;;;;;;20.80;2.65;;;9.40;99.90;;;;;;5141698;27;20039;-72
2023/03/26 06:42:17;;;;;;;19.25;2.63;;;9.50;99.90;;;;;;5141988;27;20047;-73
2023/03/26 06:44:42;;;;;;;14.45;2.30;;;9.60;99.90;;;;;;5160183;27;20038;-72
2023/03/26 06:47:08;;;;;;;19.67;2.10;;;9.50;99.90;;;;;;5159840;27;20030;-72
2023/03/26 06:49:34;;;;;;;16.80;2.53;;;9.50;99.90;;;;;;5159415;27;20042;-73
2023/03/26 06:52:01;;;;;;;16.10;1.95;;;9.60;99.90;;;;;;5159559;27;20051;-72
2023/03/26 06:54:27;;;;;;;15.18;2.60;;;9.60;99.90;;;;;;5159964;27;20123;-73
2023/03/26 06:56:53;;;;;;;17.85;2.55;;;9.60;99.90;;;;;;5159928;27;20451;-73
2023/03/26 06:59:19;;;;;;;14.18;2.50;;;9.50;99.90;;;;;;5159277;27;20042;-72
2023/03/26 07:01:44;;;;;;;19.75;2.70;;;9.60;99.90;;;;;;5159845;27;20442;-73
2023/03/26 07:04:10;;;;;;;17.73;2.85;;;9.50;99.90;;;;;;5159499;27;20042;-72
2023/03/26 07:06:36;;;;;;;21.40;2.33;;;9.50;99.90;;;;;;5159784;27;20031;-72
2023/03/26 07:09:02;;;;;;;20.08;2.60;;;9.40;99.90;;;;;;5159763;27;20087;-73
2023/03/26 07:11:28;;;;;;;18.65;2.22;;;9.40;99.90;;;;;;5159729;27;20038;-73
2023/03/26 07:13:55;;;;;;;17.25;2.08;;;9.30;99.90;;;;;;5140944;27;20365;-73
2023/03/26 07:16:21;;;;;;;23.95;2.75;;;9.30;99.90;;;;;;5159588;27;20054;-73
2023/03/26 07:18:47;;;;;;;17.13;2.47;;;9.30;99.90;;;;;;5159275;27;20087;-73
2023/03/26 07:21:13;;;;;;;27.10;2.83;;;9.20;99.90;;;;;;5159048;27;20357;-73
2023/03/26 07:23:39;;;;;;;16.85;2.38;;;9.10;99.90;;;;;;5159123;27;20447;-73
2023/03/26 07:26:23;;;;;;;20.23;2.30;;;9.30;99.90;;;;;;5158718;27;20066;-73
2023/03/26 07:29:12;;;;;;;16.90;1.98;;;9.30;99.90;;;;;;5158164;27;20078;-73
2023/03/26 07:31:47;;;;;;;16.30;2.55;;;9.30;99.90;;;;;;5155817;27;20035;-73
2023/03/26 07:34:31;;;;;;;14.85;2.63;;;9.50;99.90;;;;;;5158459;27;20038;-74
2023/03/26 07:37:11;;;;;;;16.65;2.40;;;9.70;99.90;;;;;;5155919;27;20089;-73
2023/03/26 07:39:42;;;;;;;24.55;3.03;;;9.70;99.90;;;;;;5159240;27;20035;-73
2023/03/26 07:42:27;;;;;;;18.40;2.30;;;9.60;99.90;;;;;;5140509;27;20043;-73
2023/03/26 07:45:17;;;;;;;21.48;2.22;;;9.60;99.90;;;;;;5159425;27;20066;-73
2023/03/26 07:47:43;;;;;;;20.58;2.45;;;9.40;99.90;;;;;;5158774;27;20039;-70
2023/03/26 07:50:15;;;;;;;14.05;1.98;;;9.50;99.90;;;;;;5158535;27;20038;-71
2023/03/26 07:52:42;;;;;;;16.33;2.28;;;9.40;99.90;;;;;;5158601;27;20055;-70
2023/03/26 07:55:12;;;;;;;22.20;2.65;;;9.20;99.90;;;;;;5140770;27;20038;-69
2023/03/26 07:57:56;;;;;;;15.07;1.80;;;9.10;99.90;;;;;;5158524;27;20395;-68
2023/03/26 08:00:47;;;;;;;17.42;2.33;;;9.10;99.90;;;;;;5158806;27;20042;-68
2023/03/26 08:03:23;;;;;;;15.20;2.47;;;9.40;99.90;;;;;;5158414;27;20080;-68
2023/03/26 08:06:18;;;;;;;20.90;2.65;;;9.50;99.90;;;;;;5158749;27;20046;-68
2023/03/26 08:09:07;;;;;;;20.52;2.40;;;9.60;99.90;;;;;;5140916;27;20064;-68
2023/03/26 08:11:57;;;;;;;17.88;2.50;;;9.80;99.90;;;;;;5158012;27;20125;-69
2023/03/26 08:14:53;;;;;;;16.00;2.60;;;9.80;99.90;;;;;;5140110;27;20057;-68
2023/03/26 08:17:29;;;;;;;18.33;2.63;;;9.80;99.90;;;;;;5148023;27;20104;-68
2023/03/26 08:20:30;;;;;;;17.40;2.08;;;9.90;99.90;;;;;;5158243;27;20038;-68
2023/03/26 08:23:28;;;;;;;17.10;1.83;;;9.60;99.90;;;;;;5122405;27;20050;-69
2023/03/26 08:26:02;;;;;;;13.98;1.92;;;9.60;99.90;;;;;;5158141;27;20420;-69
2023/03/26 08:28:47;;;;;;;16.90;2.58;;;9.70;99.90;;;;;;5158200;27;20061;-69
2023/03/26 08:31:14;;;;;;;14.43;2.00;;;9.70;99.90;;;;;;5158454;27;20046;-68
2023/03/26 08:33:40;;;;;;;15.10;2.05;;;9.70;99.90;;;;;;5158325;27;20046;-69
2023/03/26 08:36:08;;;;;;;15.27;1.73;;;9.60;99.90;;;;;;5158370;27;20035;-68
2023/03/26 08:38:34;;;;;;;20.63;2.63;;;9.80;99.90;;;;;;5158038;27;20416;-68
2023/03/26 08:41:05;;;;;;;19.35;2.10;;;10.10;99.90;;;;;;5139733;27;20058;-69
2023/03/26 08:44:09;;;;;;;18.88;2.55;;;10.10;99.90;;;;;;5157998;27;20107;-69
2023/03/26 08:47:26;;;;;;;20.48;2.78;;;9.80;99.90;;;;;;5157200;27;20448;-69
2023/03/26 08:50:10;;;;;;;16.50;1.85;;;10.00;99.90;;;;;;5157962;27;20078;-68
2023/03/26 08:52:41;;;;;;;16.70;2.40;;;9.90;99.90;;;;;;5157838;27;20043;-68
2023/03/26 08:55:38;;;;;;;17.55;2.20;;;9.90;99.90;;;;;;5158109;27;20060;-68
2023/03/26 08:58:25;;;;;;;15.68;1.60;;;9.90;99.90;;;;;;5158219;27;20126;-68
2023/03/26 09:01:20;;;;;;;16.00;2.90;;;9.90;99.90;;;;;;5157945;27;20175;-68
2023/03/26 09:04:07;;;;;;;15.90;1.70;;;10.10;99.90;;;;;;5158169;27;20046;-70
2023/03/26 09:06:49;;;;;;;14.32;2.40;;;10.40;99.90;;;;;;5157879;27;20399;-69
2023/03/26 09:09:18;;;;;;;17.77;1.80;;;10.50;99.90;;;;;;5158109;27;20043;-68
2023/03/26 09:11:58;;;;;;;15.30;2.00;;;10.60;99.90;;;;;;5139687;27;20034;-69
2023/03/26 09:15:04;;;;;;;18.77;1.85;;;10.70;99.90;;;;;;5139323;27;20074;-69
2023/03/26 09:17:36;;;;;;;18.02;2.20;;;10.90;99.90;;;;;;5158187;27;20038;-68
2023/03/26 09:20:23;;;;;;;19.75;2.17;;;11.00;99.90;;;;;;5157587;27;20041;-69
2023/03/26 09:22:54;;;;;;;18.83;1.90;;;10.80;99.90;;;;;;5158950;27;20096;-69
2023/03/26 09:25:52;;;;;;;16.00;2.08;;;10.60;99.90;;;;;;5161723;27;20092;-69
2023/03/26 09:28:46;;;;;;;19.02;2.55;;;10.70;99.90;;;;;;5143152;27;20050;-69
2023/03/26 09:31:33;;;;;;;18.85;2.30;;;10.80;99.90;;;;;;5161443;27;20144;-69
2023/03/26 09:33:59;;;;;;;16.92;2.40;;;10.90;99.90;;;;;;5161543;27;20125;-69
2023/03/26 09:36:52;;;;;;;12.07;2.00;;;10.90;99.90;;;;;;5142980;27;20074;-69
2023/03/26 09:39:42;;;;;;;17.77;2.15;;;10.40;99.90;;;;;;5161539;27;20039;-69
2023/03/26 09:42:42;;;;;;;16.60;1.77;;;10.30;99.90;;;;;;5161397;27;20038;-70
2023/03/26 09:45:26;;;;;;;16.38;1.80;;;10.20;99.90;;;;;;5161450;27;20109;-70
2023/03/26 09:48:20;;;;;;;19.63;2.05;;;10.40;99.90;;;;;;5161490;27;20091;-70
2023/03/26 09:51:04;;;;;;;18.77;2.10;;;10.20;99.90;;;;;;5160687;27;20049;-69
2023/03/26 09:53:52;;;;;;;15.02;2.35;;;10.30;99.90;;;;;;5142447;27;20050;-69
2023/03/26 09:56:33;;;;;;;14.65;2.35;;;10.60;99.90;;;;;;5160886;27;20431;-69
2023/03/26 09:59:38;;;;;;;18.50;2.13;;;10.60;99.90;;;;;;5142865;27;20038;-69
2023/03/26 10:02:22;;;;;;;10.98;1.80;;;10.70;99.90;;;;;;5161097;27;20035;-68
2023/03/26 10:05:27;;;;;;;14.57;1.60;;;10.70;99.90;;;;;;5125779;27;20130;-72
2023/03/26 10:08:13;;;;;;;16.85;1.92;;;10.70;99.90;;;;;;5124597;27;20125;-70
2023/03/26 10:10:57;;;;;;;16.35;2.15;;;10.60;99.90;;;;;;5160949;27;20031;-69
2023/03/26 10:13:31;;;;;;;22.17;2.33;;;10.60;99.90;;;;;;5160535;27;20370;-69
2023/03/26 10:16:05;;;;;;;10.40;1.98;;;10.50;99.90;;;;;;5160781;27;20043;-69
2023/03/26 10:18:50;;;;;;;22.67;2.58;;;10.50;99.90;;;;;;5142125;27;20035;-69
2023/03/26 10:21:19;;;;;;;21.10;2.47;;;10.30;99.90;;;;;;5125142;27;20043;-70
2023/03/26 10:24:03;;;;;;;12.05;1.65;;;10.20;99.90;;;;;;5160595;27;20328;-69
2023/03/26 10:26:58;;;;;;;19.58;1.80;;;10.10;99.90;;;;;;5142302;27;20046;-70
2023/03/26 10:29:53;;;;;;;18.10;2.33;;;10.30;99.90;;;;;;5103066;27;20049;-69
2023/03/26 10:33:03;;;;;;;17.33;3.13;;;10.60;99.90;;;;;;5160414;27;20139;-69
2023/03/26 10:35:49;;;;;;;22.55;1.88;;;10.70;99.90;;;;;;5115063;27;20522;-69
2023/03/26 10:38:35;;;;;;;18.15;2.58;;;10.90;99.90;;;;;;5159999;27;20034;-70
2023/03/26 10:41:34;;;;;;;25.23;2.50;;;10.90;99.90;;;;;;5160335;27;20043;-69
2023/03/26 10:44:39;;;;;;;24.25;2.53;;;10.70;99.90;;;;;;5141804;27;20045;-70
2023/03/26 10:47:23;;;;;;;21.50;2.70;;;10.50;99.90;;;;;;5141850;27;20114;-69
2023/03/26 10:50:22;;;;;;;17.10;2.28;;;10.30;99.90;;;;;;5159808;27;20042;-70
2023/03/26 10:52:57;;;;;;;14.02;1.95;;;10.20;99.90;;;;;;5159697;27;20102;-70
2023/03/26 10:55:44;;;;;;;10.80;1.73;;;10.40;99.90;;;;;;5160040;27;20039;-70
2023/03/26 10:58:20;;;;;;;17.85;2.20;;;10.20;99.90;;;;;;5160011;27;20030;-69
2023/03/26 11:00:49;;;;;;;;;;;10.30;99.90;;;;;;5142081;27;20117;-70
2023/03/26 11:03:53;;;;;;;18.27;1.65;;;10.30;99.90;;;;;;5159851;27;19922;-70
2023/03/26 11:06:44;;;;;;;15.73;1.85;;;10.60;99.90;;;;;;5105147;27;20051;-70
2023/03/26 11:09:36;;;;;;;14.50;1.83;;;10.50;99.90;;;;;;5158768;27;20038;-69
2023/03/26 11:12:18;;;;;;;13.77;1.90;;;10.50;99.90;;;;;;5149108;27;20033;-70
2023/03/26 11:14:56;;;;;;;17.17;3.08;;;10.70;99.90;;;;;;5108861;27;20424;-70
2023/03/26 11:17:55;;;;;;;16.63;1.50;;;10.70;99.90;;;;;;5114438;27;20031;-69
2023/03/26 11:20:32;;;;;;;13.70;1.92;;;10.70;99.90;;;;;;5137912;27;20031;-71
2023/03/26 11:23:09;;;;;;;13.77;1.85;;;10.80;99.90;;;;;;5138240;27;20043;-71
2023/03/26 11:25:42;;;;;;;;;;;10.80;99.90;;;;;;5120596;27;20039;-70
2023/03/26 11:28:40;;;;;;;18.73;2.25;;;10.70;99.90;;;;;;5120882;27;19919;-70
2023/03/26 11:31:24;;;;;;;13.18;1.20;;;10.80;99.90;;;;;;5138174;27;20416;-69
2023/03/26 11:33:54;;;;;;;12.80;1.77;;;10.70;99.90;;;;;;5144570;27;20125;-70
2023/03/26 11:36:25;;;;;;;14.27;1.73;;;10.80;99.90;;;;;;5124154;27;20039;-69
2023/03/26 11:38:56;;;;;;;18.52;2.22;;;10.80;99.90;;;;;;5159162;27;20135;-69
2023/03/26 11:41:25;;;;;;;18.00;1.60;;;10.60;99.90;;;;;;5158648;27;20331;-69
2023/03/26 11:43:56;;;;;;;13.70;2.00;;;10.40;99.90;;;;;;5152279;27;20163;-70
2023/03/26 11:46:23;;;;;;;18.65;1.98;;;10.60;99.90;;;;;;5136904;27;20116;-70
2023/03/26 11:48:56;;;;;;;18.02;1.80;;;10.70;99.90;;;;;;5119759;27;20446;-69
2023/03/26 11:51:29;;;;;;;15.20;1.85;;;10.70;99.90;;;;;;5137511;27;20035;-70
2023/03/26 11:53:56;;;;;;;13.65;1.80;;;10.40;99.90;;;;;;5137965;27;20043;-70
2023/03/26 11:56:32;;;;;;;13.27;2.08;;;10.60;99.90;;;;;;5119635;27;20074;-70
2023/03/26 11:59:28;;;;;;;14.48;1.80;;;10.80;99.90;;;;;;5136127;27;20109;-73
2023/03/26 12:02:03;;;;;;;9.15;1.25;;;10.40;99.90;;;;;;5152039;27;20043;-75
2023/03/26 12:04:39;;;;;;;15.27;1.40;;;10.40;99.90;;;;;;5158102;27;20034;-71
2023/03/26 12:07:15;;;;;;;8.55;1.35;;;10.50;99.90;;;;;;5157843;27;20035;-69
2023/03/26 12:09:56;;;;;;;14.23;1.90;;;10.50;99.90;;;;;;5158494;27;20043;-68
2023/03/26 12:12:30;;;;;;;11.75;1.63;;;10.60;99.90;;;;;;5158467;27;20147;-69
2023/03/26 12:14:57;;;;;;;14.07;1.50;;;10.50;99.90;;;;;;5140158;27;20042;-69
2023/03/26 12:17:33;;;;;;;12.75;1.52;;;10.80;99.90;;;;;;5139580;27;20042;-71
2023/03/26 12:20:00;;;;;;;10.65;1.38;;;11.10;99.90;;;;;;5137441;27;20054;-70
2023/03/26 12:22:34;;;;;;;13.00;1.35;;;11.00;99.90;;;;;;5119215;28;20042;-70
2023/03/26 12:25:21;;;;;;;14.10;2.25;;;10.90;99.90;;;;;;5137633;27;20039;-70
2023/03/26 12:28:12;;;;;;;13.07;1.73;;;11.00;99.90;;;;;;5137396;28;20102;-70
2023/03/26 12:30:53;;;;;;;9.68;1.35;;;10.90;99.90;;;;;;5137621;28;20039;-70
2023/03/26 12:33:29;;;;;;;14.10;1.55;;;10.80;99.90;;;;;;5137485;28;20119;-70
2023/03/26 12:35:59;;;;;;;11.48;1.63;;;10.80;99.90;;;;;;5119471;28;20061;-70
2023/03/26 12:38:31;;;;;;;18.48;1.60;;;10.90;99.90;;;;;;5136047;28;20416;-70
2023/03/26 12:41:19;;;;;;;16.13;1.77;;;11.10;99.90;;;;;;5137642;28;20039;-70
2023/03/26 12:43:48;;;;;;;11.63;1.70;;;11.10;99.90;;;;;;5137607;28;20039;-69
2023/03/26 12:46:36;;;;;;;15.85;2.13;;;11.00;99.90;;;;;;5102251;28;20043;-72
2023/03/26 12:49:05;;;;;;;16.05;1.85;;;10.80;99.90;;;;;;5137614;28;20039;-70
2023/03/26 12:51:48;;;;;;;14.25;1.88;;;10.60;99.90;;;;;;5136878;28;20046;-70
2023/03/26 12:54:22;;;;;;;16.10;1.67;;;10.70;99.90;;;;;;5137467;28;20046;-71
2023/03/26 12:57:01;;;;;;;13.73;1.77;;;10.70;99.90;;;;;;5137279;28;20047;-70
2023/03/26 13:00:11;;;;;;;13.43;1.63;;;10.40;99.90;;;;;;5123006;27;20038;-70
2023/03/26 13:02:45;;;;;;;13.52;1.52;;;10.40;99.90;;;;;;5141082;27;20039;-70
2023/03/26 13:05:39;;;;;;;10.05;1.55;;;10.40;99.90;;;;;;5141303;27;20424;-70
2023/03/26 13:08:38;;;;;;;7.75;1.20;;;11.00;99.90;;;;;;5141392;27;20071;-70
2023/03/26 13:11:09;;;;;;;20.02;1.95;;;11.50;99.90;;;;;;5123277;27;20035;-71
2023/03/26 13:13:41;;;;;;;14.98;1.35;;;11.80;99.90;;;;;;5141193;27;20121;-70
2023/03/26 13:16:17;;;;;;;11.70;1.50;;;11.90;99.90;;;;;;5141281;27;20300;-71
2023/03/26 13:19:09;;;;;;;7.75;1.30;;;11.60;99.90;;;;;;5141235;27;20038;-70
2023/03/26 13:21:56;;;;;;;14.38;1.75;;;11.40;99.90;;;;;;5140756;27;20042;-70
2023/03/26 13:24:24;;;;;;;15.20;1.73;;;11.30;99.90;;;;;;5142898;27;20098;-70